createdAt,value
2022-11-16T00:01:32.323Z,21.75
2022-11-16T00:03:59.716Z,21.65
2022-11-16T00:06:26.480Z,21.74
2022-11-16T00:09:11.807Z,21.93
2022-11-16T00:11:38.583Z,21.84
2022-11-16T00:14:05.375Z,21.88
2022-11-16T00:16:33.248Z,22.06
2022-11-16T00:19:00.200Z,21.23
2022-11-16T00:21:26.950Z,18.02
2022-11-16T00:23:53.718Z,16.66
2022-11-16T00:26:20.459Z,18.56
2022-11-16T00:28:47.196Z,20.20
2022-11-16T00:31:13.951Z,20.78
2022-11-16T00:33:40.701Z,21.09
2022-11-16T00:36:07.492Z,21.32
2022-11-16T00:38:34.606Z,21.43
2022-11-16T00:41:01.559Z,21.55
2022-11-16T00:43:28.307Z,21.54
2022-11-16T00:45:55.073Z,21.70
2022-11-16T00:48:21.836Z,21.76
2022-11-16T00:50:48.607Z,21.81
2022-11-16T00:53:15.440Z,21.89
2022-11-16T00:55:42.216Z,21.77
2022-11-16T00:58:08.978Z,22.07
2022-11-16T01:00:35.764Z,20.55
2022-11-16T01:03:02.520Z,17.69
2022-11-16T01:05:29.278Z,16.83
2022-11-16T01:07:56.077Z,18.84
2022-11-16T01:10:22.823Z,20.13
2022-11-16T01:12:49.714Z,20.85
2022-11-16T01:15:16.480Z,21.06
2022-11-16T01:17:43.283Z,21.16
2022-11-16T01:20:10.159Z,21.54
2022-11-16T01:22:36.914Z,21.51
2022-11-16T01:25:03.685Z,21.40
2022-11-16T01:27:30.432Z,21.69
2022-11-16T01:29:57.202Z,21.66
2022-11-16T01:32:24.012Z,21.81
2022-11-16T01:34:50.915Z,21.89
2022-11-16T01:37:17.690Z,22.04
2022-11-16T01:39:44.464Z,22.12
2022-11-16T01:42:11.207Z,19.50
2022-11-16T01:44:37.957Z,17.11
2022-11-16T01:47:04.702Z,17.18
2022-11-16T01:49:31.444Z,19.04
2022-11-16T01:51:58.217Z,20.16
2022-11-16T01:54:24.968Z,20.67
2022-11-16T01:56:51.794Z,21.09
2022-11-16T01:59:18.812Z,21.07
2022-11-16T02:01:45.992Z,21.38
2022-11-16T02:04:12.810Z,21.49
2022-11-16T02:06:39.581Z,21.44
2022-11-16T02:09:25.186Z,21.51
2022-11-16T02:11:51.959Z,21.72
2022-11-16T02:14:18.720Z,21.68
2022-11-16T02:16:48.076Z,21.91
2022-11-16T02:19:14.895Z,21.97
2022-11-16T02:21:41.654Z,22.12
2022-11-16T02:24:08.466Z,20.88
2022-11-16T02:26:35.241Z,17.64
2022-11-16T02:29:01.988Z,16.78
2022-11-16T02:31:28.731Z,18.97
2022-11-16T02:33:55.486Z,19.96
2022-11-16T02:36:22.233Z,20.59
2022-11-16T02:38:49.008Z,20.96
2022-11-16T02:41:15.802Z,21.22
2022-11-16T02:43:42.620Z,21.31
2022-11-16T02:46:09.372Z,21.29
2022-11-16T02:48:36.446Z,21.50
2022-11-16T02:51:03.378Z,21.62
2022-11-16T02:53:30.135Z,21.72
2022-11-16T02:55:56.924Z,21.99
2022-11-16T02:58:23.664Z,22.03
2022-11-16T03:00:50.480Z,21.97
2022-11-16T03:03:17.309Z,21.73
2022-11-16T03:05:44.064Z,18.43
2022-11-16T03:08:10.827Z,16.90
2022-11-16T03:11:15.977Z,18.02
2022-11-16T03:13:42.780Z,19.88
2022-11-16T03:16:09.519Z,20.45
2022-11-16T03:18:36.605Z,20.79
2022-11-16T03:21:03.540Z,21.14
2022-11-16T03:23:30.848Z,21.40
2022-11-16T03:25:57.639Z,21.38
2022-11-16T03:28:25.248Z,21.33
2022-11-16T03:30:52.008Z,21.55
2022-11-16T03:33:18.782Z,21.68
2022-11-16T03:35:45.589Z,21.86
2022-11-16T03:38:12.331Z,21.87
2022-11-16T03:40:39.092Z,21.88
2022-11-16T03:43:05.848Z,21.94
2022-11-16T03:45:32.610Z,21.40
2022-11-16T03:47:59.404Z,18.27
2022-11-16T03:50:26.179Z,16.86
2022-11-16T03:52:52.924Z,18.56
2022-11-16T03:55:19.697Z,19.90
2022-11-16T03:57:46.448Z,20.58
2022-11-16T04:00:13.196Z,20.97
2022-11-16T04:02:39.968Z,21.20
2022-11-16T04:05:25.539Z,21.28
2022-11-16T04:08:10.741Z,21.45
2022-11-16T04:10:56.055Z,21.60
2022-11-16T04:13:41.281Z,21.62
2022-11-16T04:16:26.562Z,21.62
2022-11-16T04:19:12.078Z,21.69
2022-11-16T04:21:57.337Z,21.84
2022-11-16T04:24:24.110Z,21.90
2022-11-16T04:27:09.340Z,21.62
2022-11-16T04:29:36.131Z,18.15
2022-11-16T04:32:21.504Z,16.77
2022-11-16T04:35:06.899Z,18.89
2022-11-16T04:37:48.773Z,20.28
2022-11-16T04:40:15.560Z,20.88
2022-11-16T04:42:42.312Z,21.17
2022-11-16T04:45:27.924Z,21.17
2022-11-16T04:47:54.704Z,21.49
2022-11-16T04:50:21.523Z,21.41
2022-11-16T04:52:48.319Z,21.55
2022-11-16T04:55:15.057Z,21.65
2022-11-16T04:57:41.809Z,21.70
2022-11-16T05:00:08.587Z,21.65
2022-11-16T05:02:35.380Z,21.80
2022-11-16T05:05:02.132Z,22.02
2022-11-16T05:07:28.953Z,19.81
2022-11-16T05:09:55.855Z,17.43
2022-11-16T05:12:22.743Z,18.27
2022-11-16T05:14:49.525Z,20.04
2022-11-16T05:17:16.276Z,20.78
2022-11-16T05:20:01.950Z,21.11
2022-11-16T05:22:28.698Z,21.37
2022-11-16T05:24:55.455Z,21.46
2022-11-16T05:27:22.827Z,21.79
2022-11-16T05:29:49.682Z,21.61
2022-11-16T05:32:16.636Z,21.75
2022-11-16T05:34:43.504Z,21.87
2022-11-16T05:37:10.257Z,21.92
2022-11-16T05:39:37.034Z,21.98
2022-11-16T05:42:03.801Z,21.72
2022-11-16T05:44:30.568Z,18.31
2022-11-16T05:46:57.340Z,18.26
2022-11-16T05:49:24.133Z,19.78
2022-11-16T05:51:50.902Z,20.78
2022-11-16T05:54:18.557Z,21.23
2022-11-16T05:56:45.345Z,21.40
2022-11-16T05:59:16.300Z,21.31
2022-11-16T06:01:43.421Z,21.68
2022-11-16T06:04:10.309Z,21.52
2022-11-16T06:06:37.089Z,21.67
2022-11-16T06:09:03.874Z,21.94
2022-11-16T06:11:35.473Z,22.04
2022-11-16T06:14:03.032Z,20.40
2022-11-16T06:16:29.819Z,17.68
2022-11-16T06:18:56.592Z,16.94
2022-11-16T06:21:23.350Z,18.89
2022-11-16T06:23:50.109Z,19.96
2022-11-16T06:26:16.900Z,20.71
2022-11-16T06:28:43.635Z,21.13
2022-11-16T06:31:10.427Z,21.20
2022-11-16T06:33:37.333Z,21.35
2022-11-16T06:36:04.263Z,21.43
2022-11-16T06:38:31.164Z,21.43
2022-11-16T06:40:58.209Z,21.54
2022-11-16T06:43:24.961Z,21.66
2022-11-16T06:45:51.727Z,21.78
2022-11-16T06:48:18.502Z,21.79
2022-11-16T06:50:45.259Z,21.89
2022-11-16T06:53:12.030Z,22.00
2022-11-16T06:55:38.856Z,21.26
2022-11-16T06:58:05.597Z,17.78
2022-11-16T07:00:32.436Z,18.11
2022-11-16T07:02:59.198Z,19.93
2022-11-16T07:05:25.991Z,20.82
2022-11-16T07:07:52.756Z,20.99
2022-11-16T07:10:19.513Z,21.48
2022-11-16T07:12:46.250Z,21.49
2022-11-16T07:15:13.040Z,21.53
2022-11-16T07:17:39.851Z,21.68
2022-11-16T07:20:06.591Z,21.71
2022-11-16T07:22:33.334Z,22.03
2022-11-16T07:25:00.098Z,21.89
2022-11-16T07:27:26.860Z,21.88
2022-11-16T07:29:53.607Z,18.53
2022-11-16T07:32:20.372Z,18.01
2022-11-16T07:34:47.174Z,19.71
2022-11-16T07:37:13.942Z,20.82
2022-11-16T07:39:40.775Z,21.17
2022-11-16T07:42:11.508Z,21.47
2022-11-16T07:44:38.531Z,21.48
2022-11-16T07:47:05.371Z,21.67
2022-11-16T07:49:32.131Z,21.73
2022-11-16T07:51:58.948Z,21.85
2022-11-16T07:54:25.706Z,21.85
2022-11-16T07:56:52.646Z,21.85
2022-11-16T07:59:19.394Z,21.94
2022-11-16T08:01:46.208Z,19.75
2022-11-16T08:04:15.247Z,17.48
2022-11-16T08:06:42.004Z,17.46
2022-11-16T08:09:08.785Z,19.57
2022-11-16T08:11:35.579Z,20.23
2022-11-16T08:14:02.347Z,20.97
2022-11-16T08:16:29.178Z,21.04
2022-11-16T08:18:55.980Z,21.38
2022-11-16T08:21:22.747Z,21.41
2022-11-16T08:23:52.672Z,21.67
2022-11-16T08:26:23.687Z,21.64
2022-11-16T08:28:51.187Z,21.86
2022-11-16T08:31:18.023Z,21.93
2022-11-16T08:33:44.772Z,22.06
2022-11-16T08:36:14.437Z,21.79
2022-11-16T08:38:41.421Z,18.20
2022-11-16T08:41:08.292Z,18.08
2022-11-16T08:43:35.863Z,19.81
2022-11-16T08:46:03.068Z,20.75
2022-11-16T08:48:29.876Z,21.07
2022-11-16T08:51:16.395Z,21.37
2022-11-16T08:53:43.371Z,21.47
2022-11-16T08:56:11.584Z,21.58
2022-11-16T08:58:38.323Z,21.69
2022-11-16T09:01:05.096Z,21.85
2022-11-16T09:03:31.863Z,21.85
2022-11-16T09:05:58.609Z,22.06
2022-11-16T09:08:25.377Z,18.76
2022-11-16T09:10:52.130Z,17.96
2022-11-16T09:13:18.932Z,19.20
2022-11-16T09:15:45.709Z,19.61
2022-11-16T09:18:12.500Z,20.71
2022-11-16T09:20:39.265Z,21.17
2022-11-16T09:23:06.016Z,21.46
2022-11-16T09:25:32.787Z,21.46
2022-11-16T09:27:59.638Z,21.63
2022-11-16T09:30:26.387Z,21.64
2022-11-16T09:32:53.175Z,21.72
2022-11-16T09:35:20.781Z,21.82
2022-11-16T09:37:47.533Z,21.66
2022-11-16T09:40:14.291Z,18.19
2022-11-16T09:42:41.122Z,17.93
2022-11-16T09:45:08.854Z,19.71
2022-11-16T09:47:35.624Z,20.55
2022-11-16T09:50:03.917Z,21.09
2022-11-16T09:52:31.554Z,21.22
2022-11-16T09:54:58.367Z,21.49
2022-11-16T09:57:25.134Z,21.55
2022-11-16T09:59:51.902Z,21.75
2022-11-16T10:02:18.692Z,21.71
2022-11-16T10:04:47.095Z,21.75
2022-11-16T10:07:13.914Z,21.85
2022-11-16T10:09:40.712Z,21.87
2022-11-16T10:12:07.532Z,18.95
2022-11-16T10:14:35.487Z,17.95
2022-11-16T10:17:02.246Z,18.92
2022-11-16T10:19:28.990Z,19.72
2022-11-16T10:21:55.729Z,20.62
2022-11-16T10:24:22.493Z,21.08
2022-11-16T10:26:49.251Z,21.36
2022-11-16T10:29:15.987Z,21.39
2022-11-16T10:31:42.779Z,21.49
2022-11-16T10:34:09.541Z,21.78
2022-11-16T10:36:36.307Z,21.75
2022-11-16T10:39:03.096Z,21.81
2022-11-16T10:41:29.955Z,22.12
2022-11-16T10:43:56.728Z,22.02
2022-11-16T10:46:23.496Z,20.65
2022-11-16T10:48:50.303Z,18.33
2022-11-16T10:51:17.108Z,19.26
2022-11-16T10:53:44.162Z,20.31
2022-11-16T10:56:11.985Z,21.90
2022-11-16T10:58:38.734Z,21.66
2022-11-16T11:01:05.543Z,21.97
2022-11-16T11:03:32.736Z,22.06
2022-11-16T11:05:59.817Z,22.14
2022-11-16T11:08:26.781Z,22.17
2022-11-16T11:10:53.523Z,20.39
2022-11-16T11:13:20.291Z,17.59
2022-11-16T11:15:48.044Z,17.49
2022-11-16T11:18:14.822Z,19.56
2022-11-16T11:20:44.793Z,20.34
2022-11-16T11:23:12.144Z,21.06
2022-11-16T11:25:38.905Z,21.19
2022-11-16T11:28:05.663Z,21.41
2022-11-16T11:30:32.462Z,21.68
2022-11-16T11:32:59.272Z,21.96
2022-11-16T11:35:26.119Z,21.98
2022-11-16T11:37:52.888Z,21.92
2022-11-16T11:40:19.636Z,22.21
2022-11-16T11:42:46.388Z,22.29
2022-11-16T11:45:13.178Z,21.47
2022-11-16T11:47:57.413Z,18.06
2022-11-16T11:50:25.162Z,18.07
2022-11-16T11:52:51.943Z,20.03
2022-11-16T11:55:18.700Z,20.82
2022-11-16T11:57:45.524Z,21.20
2022-11-16T12:00:12.282Z,21.56
2022-11-16T12:02:39.111Z,21.75
2022-11-16T12:05:05.932Z,21.89
2022-11-16T12:07:32.724Z,22.12
2022-11-16T12:09:59.508Z,22.25
2022-11-16T12:12:26.291Z,22.14
2022-11-16T12:14:53.051Z,21.90
2022-11-16T12:17:19.810Z,18.48
2022-11-16T12:19:46.600Z,17.03
2022-11-16T12:22:13.497Z,18.35
2022-11-16T12:24:40.246Z,19.83
2022-11-16T12:27:07.019Z,20.53
2022-11-16T12:29:34.231Z,21.03
2022-11-16T12:32:01.102Z,21.30
2022-11-16T12:34:28.063Z,21.61
2022-11-16T12:36:54.811Z,21.78
2022-11-16T12:39:21.588Z,21.92
2022-11-16T12:41:48.372Z,22.49
2022-11-16T12:44:17.195Z,22.85
2022-11-16T12:46:43.987Z,22.18
2022-11-16T12:49:10.807Z,22.28
2022-11-16T12:51:37.545Z,22.40
2022-11-16T12:54:04.356Z,19.62
2022-11-16T12:56:31.305Z,17.42
2022-11-16T12:58:58.088Z,17.85
2022-11-16T13:01:24.903Z,19.76
2022-11-16T13:03:51.814Z,20.58
2022-11-16T13:06:18.646Z,21.26
2022-11-16T13:08:45.403Z,21.61
2022-11-16T13:11:12.613Z,21.75
2022-11-16T13:13:39.421Z,21.84
2022-11-16T13:16:06.290Z,21.87
2022-11-16T13:18:33.059Z,22.03
2022-11-16T13:20:59.832Z,22.17
2022-11-16T13:23:26.667Z,22.36
2022-11-16T13:25:53.452Z,22.52
2022-11-16T13:28:20.233Z,22.18
2022-11-16T13:30:46.972Z,20.93
2022-11-16T13:33:13.792Z,17.78
2022-11-16T13:35:40.568Z,17.66
2022-11-16T13:38:07.313Z,19.68
2022-11-16T13:40:34.179Z,20.62
2022-11-16T13:43:00.942Z,21.28
2022-11-16T13:45:27.704Z,21.54
2022-11-16T13:47:54.491Z,21.75
2022-11-16T13:50:21.309Z,21.98
2022-11-16T13:53:36.383Z,21.94
2022-11-16T13:55:34.910Z,22.14
2022-11-16T13:58:01.750Z,22.35
2022-11-16T14:00:28.495Z,22.20
2022-11-16T14:02:59.990Z,22.16
2022-11-16T14:05:27.981Z,22.46
2022-11-16T14:07:54.747Z,20.19
2022-11-16T14:10:21.524Z,17.51
2022-11-16T14:12:48.288Z,17.09
2022-11-16T14:15:15.026Z,18.88
2022-11-16T14:17:41.812Z,20.28
2022-11-16T14:20:08.608Z,20.95
2022-11-16T14:22:35.415Z,21.21
2022-11-16T14:25:02.252Z,21.72
2022-11-16T14:27:30.841Z,21.83
2022-11-16T14:29:57.837Z,21.82
2022-11-16T14:32:24.600Z,22.06
2022-11-16T14:34:51.347Z,22.00
2022-11-16T14:37:18.092Z,22.21
2022-11-16T14:39:44.850Z,22.25
2022-11-16T14:42:11.609Z,22.27
2022-11-16T14:44:38.891Z,22.46
2022-11-16T14:47:05.743Z,18.63
2022-11-16T14:49:32.501Z,17.00
2022-11-16T14:51:59.356Z,17.94
2022-11-16T14:54:26.482Z,19.69
2022-11-16T14:56:53.250Z,20.45
2022-11-16T14:59:20.190Z,21.26
2022-11-16T15:01:47.040Z,21.47
2022-11-16T15:04:13.887Z,21.63
2022-11-16T15:06:40.740Z,21.69
2022-11-16T15:09:07.589Z,21.74
2022-11-16T15:11:52.828Z,21.82
2022-11-16T15:14:19.663Z,21.98
2022-11-16T15:16:46.416Z,21.98
2022-11-16T15:19:13.168Z,22.05
2022-11-16T15:21:39.951Z,22.26
2022-11-16T15:24:29.369Z,22.29
2022-11-16T15:26:53.738Z,18.38
2022-11-16T15:29:20.516Z,16.72
2022-11-16T15:31:47.263Z,18.29
2022-11-16T15:34:14.075Z,19.91
2022-11-16T15:36:40.867Z,20.59
2022-11-16T15:39:07.699Z,21.18
2022-11-16T15:41:34.472Z,21.50
2022-11-16T15:44:13.978Z,21.74
2022-11-16T15:46:41.730Z,21.91
2022-11-16T15:49:08.473Z,21.62
2022-11-16T15:51:35.232Z,21.86
2022-11-16T15:54:02.005Z,22.08
2022-11-16T15:56:28.788Z,22.08
2022-11-16T15:58:55.534Z,22.22
2022-11-16T16:01:22.328Z,22.43
2022-11-16T16:03:49.100Z,19.92
2022-11-16T16:06:15.862Z,17.42
2022-11-16T16:08:42.992Z,17.18
2022-11-16T16:11:09.828Z,19.22
2022-11-16T16:13:36.909Z,20.29
2022-11-16T16:16:03.868Z,20.75
2022-11-16T16:18:43.099Z,21.46
2022-11-16T16:21:09.880Z,21.60
2022-11-16T16:23:36.789Z,21.66
2022-11-16T16:26:03.728Z,21.93
2022-11-16T16:28:30.600Z,22.13
2022-11-16T16:30:57.348Z,22.07
2022-11-16T16:33:28.451Z,22.36
2022-11-16T16:35:55.213Z,22.40
2022-11-16T16:38:22.180Z,22.20
2022-11-16T16:40:48.924Z,22.23
2022-11-16T16:43:15.750Z,20.87
2022-11-16T16:45:43.623Z,17.94
2022-11-16T16:48:11.620Z,16.84
2022-11-16T16:50:38.379Z,18.79
2022-11-16T16:53:05.139Z,20.12
2022-11-16T16:55:37.041Z,20.89
2022-11-16T16:58:04.366Z,21.36
2022-11-16T17:00:31.107Z,21.47
2022-11-16T17:02:58.484Z,21.62
2022-11-16T17:05:26.192Z,21.90
2022-11-16T17:07:52.931Z,21.97
2022-11-16T17:10:19.689Z,21.96
2022-11-16T17:12:46.998Z,21.88
2022-11-16T17:15:19.054Z,22.26
2022-11-16T17:17:46.178Z,22.06
2022-11-16T17:20:13.309Z,22.37
2022-11-16T17:22:41.694Z,22.27
2022-11-16T17:25:08.511Z,19.81
2022-11-16T17:27:35.291Z,17.47
2022-11-16T17:30:02.123Z,17.31
2022-11-16T17:32:28.936Z,19.27
2022-11-16T17:34:55.700Z,20.38
2022-11-16T17:37:22.444Z,21.26
2022-11-16T17:39:49.198Z,21.44
2022-11-16T17:42:15.970Z,21.48
2022-11-16T17:44:42.767Z,21.89
2022-11-16T17:47:09.553Z,21.87
2022-11-16T17:49:36.307Z,21.80
2022-11-16T17:52:04.394Z,21.84
2022-11-16T17:54:31.177Z,22.17
2022-11-16T17:56:57.933Z,22.04
2022-11-16T17:59:29.223Z,22.27
2022-11-16T18:01:57.767Z,22.33
2022-11-16T18:04:24.535Z,22.17
2022-11-16T18:06:51.350Z,18.96
2022-11-16T18:09:18.643Z,17.18
2022-11-16T18:11:45.419Z,17.94
2022-11-16T18:14:12.307Z,19.80
2022-11-16T18:16:42.217Z,20.83
2022-11-16T18:19:09.821Z,21.24
2022-11-16T18:21:36.564Z,21.62
2022-11-16T18:24:03.303Z,21.87
2022-11-16T18:26:30.055Z,21.87
2022-11-16T18:28:56.817Z,21.97
2022-11-16T18:31:23.611Z,22.08
2022-11-16T18:33:50.440Z,22.06
2022-11-16T18:36:17.262Z,22.31
2022-11-16T18:38:44.020Z,22.15
2022-11-16T18:41:10.767Z,19.50
2022-11-16T18:43:37.959Z,17.31
2022-11-16T18:46:04.842Z,17.58
2022-11-16T18:48:31.629Z,19.47
2022-11-16T18:50:58.422Z,20.44
2022-11-16T18:53:25.167Z,21.08
2022-11-16T18:55:57.485Z,21.34
2022-11-16T18:58:49.248Z,21.73
2022-11-16T19:01:11.576Z,21.83
2022-11-16T19:03:38.337Z,21.82
2022-11-16T19:06:07.386Z,22.09
2022-11-16T19:08:34.145Z,21.93
2022-11-16T19:11:00.892Z,22.00
2022-11-16T19:13:28.323Z,22.02
2022-11-16T19:15:55.091Z,22.32
2022-11-16T19:18:22.307Z,22.55
2022-11-16T19:20:49.127Z,19.55
2022-11-16T19:23:16.042Z,17.23
2022-11-16T19:25:42.804Z,17.91
2022-11-16T19:28:09.556Z,19.73
2022-11-16T19:30:36.328Z,20.53
2022-11-16T19:33:03.971Z,21.24
2022-11-16T19:35:30.732Z,21.55
2022-11-16T19:37:57.515Z,21.86
2022-11-16T19:40:25.286Z,21.95
2022-11-16T19:42:52.155Z,21.98
2022-11-16T19:45:18.938Z,22.26
2022-11-16T19:47:45.695Z,22.10
2022-11-16T19:50:12.447Z,22.24
2022-11-16T19:52:39.260Z,22.25
2022-11-16T19:55:06.012Z,22.41
2022-11-16T19:57:32.757Z,22.17
2022-11-16T19:59:59.526Z,18.60
2022-11-16T20:02:26.281Z,17.00
2022-11-16T20:04:53.298Z,18.37
2022-11-16T20:07:21.157Z,19.91
2022-11-16T20:09:53.134Z,20.64
2022-11-16T20:12:20.180Z,21.22
2022-11-16T20:14:47.005Z,21.65
2022-11-16T20:17:13.768Z,21.61
2022-11-16T20:19:40.517Z,22.05
2022-11-16T20:22:08.255Z,21.91
2022-11-16T20:24:35.037Z,22.07
2022-11-16T20:27:01.779Z,22.00
2022-11-16T20:29:28.530Z,22.16
2022-11-16T20:31:55.276Z,22.19
2022-11-16T20:34:22.141Z,22.29
2022-11-16T20:36:50.683Z,19.39
2022-11-16T20:39:17.453Z,17.26
2022-11-16T20:41:44.253Z,17.39
2022-11-16T20:44:15.987Z,19.21
2022-11-16T20:46:44.193Z,20.39
2022-11-16T20:49:10.995Z,20.85
2022-11-16T20:51:37.808Z,21.40
2022-11-16T20:54:04.579Z,21.52
2022-11-16T20:56:31.421Z,21.81
2022-11-16T20:58:58.587Z,21.73
2022-11-16T21:01:28.881Z,22.07
2022-11-16T21:03:55.868Z,21.92
2022-11-16T21:06:22.694Z,22.03
2022-11-16T21:08:49.477Z,22.14
2022-11-16T21:11:16.403Z,22.45
2022-11-16T21:14:02.000Z,22.34
2022-11-16T21:16:28.748Z,21.31
2022-11-16T21:18:55.663Z,17.96
2022-11-16T21:21:22.459Z,16.77
2022-11-16T21:23:51.708Z,18.75
2022-11-16T21:26:18.510Z,19.98
2022-11-16T21:28:45.488Z,20.72
2022-11-16T21:31:12.286Z,21.02
2022-11-16T21:33:39.046Z,21.60
2022-11-16T21:36:05.886Z,21.45
2022-11-16T21:38:32.642Z,21.74
2022-11-16T21:40:59.387Z,22.04
2022-11-16T21:43:26.146Z,22.15
2022-11-16T21:45:52.954Z,21.97
2022-11-16T21:48:19.698Z,22.36
2022-11-16T21:50:46.476Z,22.26
2022-11-16T21:53:13.223Z,20.81
2022-11-16T21:55:39.961Z,17.75
2022-11-16T21:58:06.820Z,17.95
2022-11-16T22:00:33.623Z,19.99
2022-11-16T22:03:00.413Z,20.85
2022-11-16T22:05:46.115Z,21.32
2022-11-16T22:08:12.919Z,21.77
2022-11-16T22:10:39.770Z,21.57
2022-11-16T22:13:06.533Z,21.85
2022-11-16T22:15:33.292Z,21.77
2022-11-16T22:18:00.039Z,22.04
2022-11-16T22:20:26.804Z,21.96
2022-11-16T22:22:53.554Z,22.07
2022-11-16T22:25:20.644Z,22.31
2022-11-16T22:28:18.610Z,22.59
2022-11-16T22:30:34.822Z,19.37
2022-11-16T22:33:01.595Z,17.16
2022-11-16T22:35:28.392Z,17.72
2022-11-16T22:37:55.900Z,19.65
2022-11-16T22:40:22.698Z,20.51
2022-11-16T22:42:49.473Z,20.97
2022-11-16T22:45:16.211Z,21.58
2022-11-16T22:47:42.988Z,21.41
2022-11-16T22:50:09.744Z,21.60
2022-11-16T22:52:36.528Z,21.91
2022-11-16T22:55:03.324Z,21.88
2022-11-16T22:57:30.135Z,22.16
2022-11-16T22:59:56.933Z,22.16
2022-11-16T23:02:23.701Z,22.33
2022-11-16T23:04:50.462Z,22.17
2022-11-16T23:07:17.237Z,22.12
2022-11-16T23:09:44.059Z,18.47
2022-11-16T23:12:29.439Z,16.96
2022-11-16T23:15:14.655Z,18.26
2022-11-16T23:17:41.458Z,20.23
2022-11-16T23:20:26.918Z,20.99
2022-11-16T23:23:12.672Z,21.18
2022-11-16T23:25:57.992Z,21.45
2022-11-16T23:28:24.808Z,21.89
2022-11-16T23:30:51.563Z,21.73
2022-11-16T23:33:38.335Z,21.95
2022-11-16T23:36:05.089Z,22.02
2022-11-16T23:38:31.901Z,22.04
2022-11-16T23:40:58.664Z,22.12
2022-11-16T23:43:44.332Z,22.10
2022-11-16T23:46:11.098Z,22.49
2022-11-16T23:48:37.852Z,20.45
2022-11-16T23:51:04.600Z,17.73
2022-11-16T23:53:31.384Z,17.64
2022-11-16T23:56:02.706Z,19.74
2022-11-16T23:58:32.167Z,20.62
